Time;durP1;ratioP1;P1;durP2;ratioP2;P2;SDS_P1;SDS_P2;PMS_P1;PMS_P2;Temp;Humidity;BMP_temperature;BMP_pressure;BME280_temperature;BME280_humidity;BME280_pressure;Samples;Min_cycle;Max_cycle;Signal;HPM_P1;HPM_P2
2023/04/22 00:00:15;;;;;;;9.43;7.13;;;;;;;12.41;50.75;100994.56;4989608;28;20448;-71
2023/04/22 00:02:45;;;;;;;11.40;8.30;;;;;;;12.29;51.26;100991.69;4989803;28;20506;-70
2023/04/22 00:05:17;;;;;;;8.03;7.33;;;;;;;12.18;51.19;100986.91;4984625;28;20435;-71
2023/04/22 00:07:48;;;;;;;10.50;6.87;;;;;;;12.23;51.25;100981.66;4992369;28;20518;-69
2023/04/22 00:10:17;;;;;;;9.10;7.93;;;;;;;12.13;51.34;100975.84;4988910;28;20413;-70
2023/04/22 00:12:48;;;;;;;13.63;8.30;;;;;;;12.39;50.89;100978.50;4985284;28;20449;-71
2023/04/22 00:15:20;;;;;;;10.50;7.07;;;;;;;12.13;51.33;100973.13;4988409;28;20534;-71
2023/04/22 00:17:49;;;;;;;9.67;7.50;;;;;;;12.23;51.15;100970.81;4988138;28;20888;-69
2023/04/22 00:20:20;;;;;;;10.73;7.60;;;;;;;12.29;50.82;100961.84;4988172;28;20477;-71
2023/04/22 00:22:49;;;;;;;9.50;8.17;;;;;;;12.14;51.36;100961.25;4990519;28;20423;-70
2023/04/22 00:25:19;;;;;;;10.30;8.43;;;;;;;12.07;51.51;100960.41;4989963;28;20450;-70
2023/04/22 00:27:50;;;;;;;9.10;7.20;;;;;;;12.05;51.60;100957.06;4988721;28;20506;-70
2023/04/22 00:30:19;;;;;;;10.20;8.33;;;;;;;12.11;51.36;100961.63;4985632;28;20432;-69
2023/04/22 00:32:48;;;;;;;8.20;7.40;;;;;;;12.09;51.44;100959.16;4992575;28;20456;-72
2023/04/22 00:35:18;;;;;;;10.23;7.57;;;;;;;12.01;51.38;100947.66;4990950;28;20464;-70
2023/04/22 00:37:47;;;;;;;10.33;8.17;;;;;;;12.05;51.68;100954.38;4986980;28;20443;-70
2023/04/22 00:40:16;;;;;;;8.87;7.60;;;;;;;12.01;51.69;100955.81;4993275;28;20504;-70
2023/04/22 00:42:46;;;;;;;14.10;8.17;;;;;;;12.02;51.60;100947.47;4990581;28;20431;-70
2023/04/22 00:45:18;;;;;;;12.60;8.93;;;;;;;11.96;51.93;100955.59;4985729;28;20792;-71
2023/04/22 00:47:48;;;;;;;9.37;7.70;;;;;;;11.89;52.06;100941.22;4988101;28;20427;-70
2023/04/22 00:50:17;;;;;;;8.20;6.60;;;;;;;11.83;52.38;100932.03;4995107;28;20421;-69
2023/04/22 00:52:46;;;;;;;8.13;7.33;;;;;;;11.88;52.01;100944.97;4985106;28;20438;-70
2023/04/22 00:55:15;;;;;;;12.80;7.67;;;;;;;11.99;51.64;100936.22;4993563;28;20434;-71
2023/04/22 00:57:46;;;;;;;11.03;7.27;;;;;;;11.90;52.09;100937.47;4985521;28;20453;-70
2023/04/22 01:00:18;;;;;;;7.53;6.73;;;;;;;11.84;52.21;100933.72;4993068;28;20468;-70
2023/04/22 01:02:48;;;;;;;8.03;7.13;;;;;;;11.59;52.93;100943.47;4989747;28;20854;-70
2023/04/22 01:05:18;;;;;;;22.53;8.87;;;;;;;11.60;53.10;100935.16;5032713;23;20545;-81
2023/04/22 01:07:51;;;;;;;9.57;8.30;;;;;;;11.42;53.42;100932.22;5010641;28;20434;-81
2023/04/22 01:10:20;;;;;;;11.67;8.13;;;;;;;11.35;53.73;100934.06;5021454;28;20452;-79
2023/04/22 01:12:49;;;;;;;11.80;7.27;;;;;;;11.39;53.66;100932.63;5009966;28;20849;-81
2023/04/22 01:15:20;;;;;;;14.00;8.27;;;;;;;11.30;54.11;100934.69;5024613;28;20458;-81
2023/04/22 01:17:53;;;;;;;8.77;7.93;;;;;;;11.28;54.07;100930.50;5017250;28;20407;-80
2023/04/22 01:20:24;;;;;;;8.27;6.73;;;;;;;11.33;53.96;100928.84;5027082;28;20463;-80
2023/04/22 01:22:55;;;;;;;9.43;8.10;;;;;;;11.39;53.75;100929.06;5023377;28;20413;-80
2023/04/22 01:25:27;;;;;;;8.53;7.60;;;;;;;11.31;54.10;100924.69;5034988;28;20439;-78
2023/04/22 01:27:57;;;;;;;9.27;7.50;;;;;;;11.22;54.35;100926.78;5029837;28;20798;-77
2023/04/22 01:30:27;;;;;;;12.97;8.23;;;;;;;11.11;54.91;100921.13;5045718;28;20415;-78
2023/04/22 01:33:00;;;;;;;9.60;8.57;;;;;;;10.92;55.49;100919.19;5019873;28;20533;-79
2023/04/22 01:35:35;;;;;;;9.50;8.20;;;;;;;10.88;55.74;100916.91;5048839;28;20430;-80
2023/04/22 01:38:06;;;;;;;9.37;8.20;;;;;;;10.88;55.91;100921.47;5041569;28;20420;-80
2023/04/22 01:40:38;;;;;;;7.70;7.00;;;;;;;11.00;55.73;100919.00;5027846;28;20494;-79
2023/04/22 01:43:07;;;;;;;8.10;6.87;;;;;;;11.05;55.57;100919.22;5038793;28;20470;-78
2023/04/22 01:45:37;;;;;;;8.53;7.40;;;;;;;11.12;55.60;100914.66;5036300;28;20458;-77
2023/04/22 01:48:07;;;;;;;14.43;7.87;;;;;;;10.84;56.04;100909.38;5038202;28;20423;-77
2023/04/22 01:50:38;;;;;;;9.80;8.27;;;;;;;10.72;56.26;100908.28;5029868;28;20415;-79
2023/04/22 01:53:08;;;;;;;11.63;7.80;;;;;;;10.74;56.40;100909.78;5037793;28;20418;-76
2023/04/22 01:55:39;;;;;;;11.37;8.20;;;;;;;10.71;56.68;100904.75;5034371;28;20455;-80
2023/04/22 01:58:09;;;;;;;9.40;8.50;;;;;;;10.52;57.10;100897.38;5034548;28;20437;-78
2023/04/22 02:00:39;;;;;;;7.67;6.87;;;;;;;10.44;57.88;100898.41;5034833;28;20481;-76
2023/04/22 02:03:11;;;;;;;9.10;7.70;;;;;;;10.44;57.45;100898.41;5035070;28;20464;-77
2023/04/22 02:05:41;;;;;;;12.20;8.37;;;;;;;10.60;57.03;100897.19;5027970;28;20437;-79
2023/04/22 02:08:10;;;;;;;10.83;7.60;;;;;;;10.62;56.76;100892.44;5038659;28;20437;-77
2023/04/22 02:10:40;;;;;;;11.43;9.00;;;;;;;10.68;56.91;100897.03;5049060;28;20449;-78
2023/04/22 02:13:09;;;;;;;9.83;8.30;;;;;;;10.58;56.78;100879.50;5052834;28;20408;-79
2023/04/22 02:15:40;;;;;;;11.10;8.47;;;;;;;10.70;56.54;100889.53;5031349;28;20467;-78
2023/04/22 02:18:09;;;;;;;8.40;7.60;;;;;;;10.76;56.16;100882.47;5028828;28;20424;-77
2023/04/22 02:20:41;;;;;;;11.70;8.97;;;;;;;10.82;56.05;100887.09;5036091;28;20692;-80
2023/04/22 02:23:11;;;;;;;21.23;8.43;;;;;;;10.85;55.86;100878.53;5030740;28;20558;-81
2023/04/22 02:25:48;;;;;;;10.67;8.03;;;;;;;10.88;55.74;100884.41;5022183;28;20484;-80
2023/04/22 02:28:20;;;;;;;10.57;7.83;;;;;;;10.89;55.73;100869.81;5043138;28;20437;-80
2023/04/22 02:30:49;;;;;;;10.10;9.07;;;;;;;10.81;55.94;100872.72;5029483;28;20430;-80
2023/04/22 02:33:18;;;;;;;11.50;7.90;;;;;;;10.88;55.59;100872.75;5038220;28;20409;-80
2023/04/22 02:35:48;;;;;;;10.40;8.50;;;;;;;10.89;55.78;100863.59;5033109;28;20460;-79
2023/04/22 02:38:20;;;;;;;9.40;7.43;;;;;;;10.73;56.04;100864.78;5020471;28;20474;-80
2023/04/22 02:40:50;;;;;;;9.00;7.60;;;;;;;10.78;55.82;100856.91;5023342;28;20469;-79
2023/04/22 02:43:20;;;;;;;10.97;7.50;;;;;;;10.72;56.04;100855.00;5024820;28;20424;-78
2023/04/22 02:45:49;;;;;;;8.90;7.70;;;;;;;10.56;56.71;100860.75;5022999;28;20475;-79
2023/04/22 02:48:19;;;;;;;13.17;8.50;;;;;;;10.57;56.89;100856.19;5012688;28;20442;-80
2023/04/22 02:50:48;;;;;;;9.33;8.43;;;;;;;10.50;57.18;100852.63;5021258;28;20452;-80
2023/04/22 02:53:17;;;;;;;8.50;7.70;;;;;;;10.50;57.00;100858.06;5024983;28;20819;-80
2023/04/22 02:55:47;;;;;;;10.03;8.60;;;;;;;10.60;56.96;100853.91;5027163;28;20447;-82
2023/04/22 02:58:18;;;;;;;9.47;8.17;;;;;;;10.57;56.81;100856.19;5024166;28;20440;-80
2023/04/22 03:00:47;;;;;;;17.13;9.87;;;;;;;10.56;56.60;100858.06;5032149;28;20529;-78
2023/04/22 03:03:16;;;;;;;8.00;6.93;;;;;;;10.48;56.96;100855.53;5023690;28;20464;-81
2023/04/22 03:05:46;;;;;;;13.53;9.33;;;;;;;10.44;57.03;100865.09;5012406;28;20528;-82
2023/04/22 03:08:16;;;;;;;11.23;8.20;;;;;;;10.33;57.55;100862.97;5032438;28;20419;-79
2023/04/22 03:10:46;;;;;;;9.77;8.83;;;;;;;10.19;57.94;100855.81;5018983;28;20437;-80
2023/04/22 03:13:16;;;;;;;9.67;7.87;;;;;;;10.26;57.69;100857.50;5030099;28;20770;-80
2023/04/22 03:15:46;;;;;;;10.73;8.20;;;;;;;10.11;58.13;100859.50;5030683;28;20520;-79
2023/04/22 03:18:16;;;;;;;10.63;8.43;;;;;;;10.13;58.02;100862.00;5022102;28;20450;-80
2023/04/22 03:20:46;;;;;;;10.53;8.27;;;;;;;10.08;58.42;100853.66;5024282;28;20498;-80
2023/04/22 03:23:16;;;;;;;14.33;8.57;;;;;;;10.10;58.38;100854.28;5016243;28;20936;-80
2023/04/22 03:25:45;;;;;;;12.13;11.00;;;;;;;10.23;57.58;100857.09;5017374;28;20484;-79
2023/04/22 03:28:15;;;;;;;9.83;8.10;;;;;;;10.32;57.53;100851.31;5018705;28;20415;-81
2023/04/22 03:30:45;;;;;;;10.57;8.20;;;;;;;10.24;57.47;100848.78;5025149;28;20922;-83
2023/04/22 03:33:14;;;;;;;10.13;7.83;;;;;;;10.27;57.62;100847.53;5035096;28;20447;-81
2023/04/22 03:35:49;;;;;;;12.30;8.50;;;;;;;10.20;57.71;100847.53;5023667;28;20446;-79
2023/04/22 03:38:19;;;;;;;9.13;7.77;;;;;;;10.02;58.49;100853.41;5043388;28;20542;-78
2023/04/22 03:40:50;;;;;;;9.33;8.33;;;;;;;9.97;58.80;100853.16;5024041;28;20503;-79
2023/04/22 03:43:35;;;;;;;10.80;9.20;;;;;;;9.86;59.44;100861.84;5039451;28;20473;-77
2023/04/22 03:46:08;;;;;;;12.02;8.55;;;;;;;9.84;59.22;100853.09;5038960;28;20410;-78
2023/04/22 03:48:45;;;;;;;8.77;7.90;;;;;;;9.89;59.28;100856.03;5041545;28;20274;-76
2023/04/22 03:51:27;;;;;;;10.17;7.50;;;;;;;9.85;59.47;100849.38;5016582;28;20518;-80
2023/04/22 03:53:58;;;;;;;10.40;8.40;;;;;;;9.90;59.39;100852.31;5005931;28;20470;-80
2023/04/22 03:56:30;;;;;;;12.88;8.68;;;;;;;9.72;60.06;100856.56;5021384;28;20800;-79
2023/04/22 03:59:03;;;;;;;10.37;8.03;;;;;;;9.72;60.25;100852.00;5025839;28;20192;-78
2023/04/22 04:01:34;;;;;;;11.43;8.70;;;;;;;9.69;60.56;100857.78;5037570;28;20442;-79
2023/04/22 04:04:10;;;;;;;9.90;8.90;;;;;;;9.73;60.38;100856.34;5014245;28;20447;-80
2023/04/22 04:06:47;;;;;;;9.77;8.50;;;;;;;9.78;60.35;100859.28;5025240;28;20534;-81
2023/04/22 04:09:16;;;;;;;11.80;7.17;;;;;;;9.73;60.35;100850.94;5029036;28;20493;-80
2023/04/22 04:11:46;;;;;;;12.47;8.90;;;;;;;9.77;60.51;100851.41;5028161;28;20435;-80
2023/04/22 04:14:17;;;;;;;18.33;9.67;;;;;;;9.73;60.77;100853.63;5030889;28;20475;-79
2023/04/22 04:16:50;;;;;;;11.80;8.93;;;;;;;9.76;60.80;100852.44;5036588;28;20427;-79
2023/04/22 04:19:31;;;;;;;11.63;8.10;;;;;;;10.18;60.34;100865.81;5018592;28;21023;-80
2023/04/22 04:22:00;;;;;;;12.97;9.80;;;;;;;10.89;58.14;100855.47;5013230;28;20204;-79
2023/04/22 04:24:35;;;;;;;10.10;8.40;;;;;;;11.43;56.30;100860.72;5014686;28;20469;-78
2023/04/22 04:27:12;;;;;;;14.83;9.10;;;;;;;12.01;54.06;100845.44;5016845;28;20430;-80
2023/04/22 04:29:51;;;;;;;16.53;11.47;;;;;;;12.42;53.12;100850.53;5016143;28;20453;-79
2023/04/22 04:32:52;;;;;;;12.20;10.10;;;;;;;12.97;51.42;100846.25;5017965;28;21000;-81
2023/04/22 04:35:22;;;;;;;12.60;9.13;;;;;;;13.32;50.28;100851.25;5035679;28;20540;-79
2023/04/22 04:37:55;;;;;;;10.37;8.87;;;;;;;13.70;48.91;100851.16;5036005;28;20472;-81
2023/04/22 04:40:28;;;;;;;9.57;8.00;;;;;;;13.87;48.43;100846.81;5018726;28;20439;-80
2023/04/22 04:43:07;;;;;;;9.73;8.37;;;;;;;14.02;48.17;100851.88;5017359;28;20414;-80
2023/04/22 04:45:46;;;;;;;11.00;9.00;;;;;;;14.06;47.30;100847.66;5022445;28;20459;-79
2023/04/22 04:48:23;;;;;;;12.70;10.10;;;;;;;14.59;46.57;100853.31;5018470;28;20468;-78
2023/04/22 04:50:57;;;;;;;12.70;8.90;;;;;;;14.51;46.31;100850.91;5033787;28;20414;-82
2023/04/22 04:53:30;;;;;;;15.07;10.90;;;;;;;14.79;45.55;100859.34;5021791;28;20672;-81
2023/04/22 04:55:59;;;;;;;10.70;9.43;;;;;;;15.22;45.02;100857.22;5030750;28;20828;-82
2023/04/22 04:58:30;;;;;;;10.17;8.50;;;;;;;15.61;44.19;100855.78;5027876;28;20451;-79
2023/04/22 05:01:21;;;;;;;13.70;10.03;;;;;;;15.86;43.45;100852.81;5023430;28;20451;-77
2023/04/22 05:03:52;;;;;;;11.43;10.30;;;;;;;15.67;43.67;100850.44;5021681;28;20968;-81
2023/04/22 05:06:22;;;;;;;13.10;8.63;;;;;;;16.01;42.81;100853.19;5022205;28;20515;-79
2023/04/22 05:08:56;;;;;;;12.23;9.70;;;;;;;15.99;42.61;100857.19;5021484;28;20415;-77
2023/04/22 05:11:26;;;;;;;10.30;9.03;;;;;;;16.70;41.37;100858.75;5013828;28;20766;-81
2023/04/22 05:13:57;;;;;;;9.20;8.30;;;;;;;15.53;43.13;100853.41;5019467;28;21005;-79
2023/04/22 05:16:39;;;;;;;9.73;8.70;;;;;;;13.68;47.43;100850.53;5030188;28;20410;-80
2023/04/22 05:19:10;;;;;;;10.00;9.00;;;;;;;12.92;49.63;100853.41;5018086;28;21053;-79
2023/04/22 05:21:40;;;;;;;11.43;8.97;;;;;;;12.43;50.83;100851.38;5044006;28;20496;-80
2023/04/22 05:24:09;;;;;;;10.67;9.57;;;;;;;12.25;51.56;100846.63;5034810;28;20463;-80
2023/04/22 05:26:40;;;;;;;12.73;9.40;;;;;;;12.02;52.52;100849.81;5035826;28;20873;-79
2023/04/22 05:29:18;;;;;;;11.50;9.80;;;;;;;11.99;52.64;100850.25;5040907;28;20955;-78
2023/04/22 05:31:50;;;;;;;13.10;9.00;;;;;;;12.06;52.93;100851.06;5031662;28;20418;-80
2023/04/22 05:34:19;;;;;;;13.63;10.43;;;;;;;12.05;52.69;100843.97;5038022;28;20543;-81
2023/04/22 05:36:49;;;;;;;14.10;9.90;;;;;;;11.94;52.75;100846.50;5021906;28;20416;-80
2023/04/22 05:39:18;;;;;;;11.53;10.20;;;;;;;12.06;52.94;100852.94;5035467;28;20452;-78
2023/04/22 05:41:48;;;;;;;13.30;10.90;;;;;;;12.12;52.92;100854.81;5042930;28;20469;-78
2023/04/22 05:44:17;;;;;;;12.10;9.83;;;;;;;12.16;52.87;100856.03;5022672;28;20463;-78
2023/04/22 05:46:48;;;;;;;12.27;11.07;;;;;;;12.35;52.59;100857.84;5031832;28;20411;-78
2023/04/22 05:49:19;;;;;;;10.80;8.73;;;;;;;12.45;52.16;100855.50;5025909;28;20421;-77
2023/04/22 05:52:04;;;;;;;13.23;10.10;;;;;;;12.46;51.51;100854.47;5032851;28;20435;-82
2023/04/22 05:54:44;;;;;;;19.00;11.50;;;;;;;12.39;51.22;100859.09;5038201;28;20478;-79
2023/04/22 05:57:13;;;;;;;11.67;9.17;;;;;;;12.33;52.00;100856.41;5050096;28;20415;-78
2023/04/22 05:59:42;;;;;;;14.97;10.70;;;;;;;12.55;51.50;100861.31;5031902;28;20504;-78
2023/04/22 06:02:14;;;;;;;13.43;11.30;;;;;;;12.58;51.15;100860.06;5031033;28;20474;-78
2023/04/22 06:04:43;;;;;;;10.60;9.50;;;;;;;12.74;51.21;100854.13;5037174;28;20470;-78
2023/04/22 06:07:14;;;;;;;17.63;10.77;;;;;;;12.84;50.66;100853.66;5035536;28;20411;-80
2023/04/22 06:09:43;;;;;;;11.43;9.97;;;;;;;12.94;50.35;100848.56;5023603;28;20480;-79
2023/04/22 06:12:13;;;;;;;13.00;9.33;;;;;;;12.94;50.54;100849.41;5030703;28;20440;-78
2023/04/22 06:14:42;;;;;;;15.37;10.33;;;;;;;13.09;50.13;100857.25;5034265;28;20448;-77
2023/04/22 06:17:12;;;;;;;11.67;9.80;;;;;;;13.23;49.99;100855.31;5042493;28;20461;-77
2023/04/22 06:19:42;;;;;;;17.00;12.00;;;;;;;13.31;49.56;100852.34;5035796;28;20380;-78
2023/04/22 06:22:12;;;;;;;11.93;9.10;;;;;;;13.41;50.04;100856.19;5037330;28;20436;-78
2023/04/22 06:24:41;;;;;;;11.43;9.10;;;;;;;13.61;49.03;100856.03;5034560;28;20420;-76
2023/04/22 06:27:14;;;;;;;12.60;10.53;;;;;;;13.79;48.50;100860.69;5037684;28;20438;-78
2023/04/22 06:29:44;;;;;;;12.97;9.73;;;;;;;13.80;48.28;100862.34;5027838;28;20408;-81
2023/04/22 06:32:15;;;;;;;14.60;11.30;;;;;;;13.80;48.46;100862.34;5026893;28;20453;-81
2023/04/22 06:34:45;;;;;;;12.37;10.47;;;;;;;13.79;48.48;100857.97;5032959;28;20447;-80
2023/04/22 06:37:14;;;;;;;18.50;12.37;;;;;;;13.89;48.43;100863.75;5031295;28;20437;-80
2023/04/22 06:39:44;;;;;;;15.83;11.30;;;;;;;13.88;48.14;100862.91;5024195;28;20453;-81
2023/04/22 06:42:36;;;;;;;18.80;11.10;;;;;;;13.89;48.50;100863.75;4990303;28;20840;-78
2023/04/22 06:45:24;;;;;;;15.60;10.47;;;;;;;13.97;48.40;100854.44;5025445;28;20529;-79
2023/04/22 06:48:04;;;;;;;13.10;11.60;;;;;;;14.07;48.22;100863.75;5028724;28;20793;-78
2023/04/22 06:50:54;;;;;;;15.80;10.77;;;;;;;14.08;48.33;100851.81;5029112;28;20421;-78
2023/04/22 06:53:24;;;;;;;11.80;10.27;;;;;;;14.27;48.05;100850.75;5032637;28;20540;-80
2023/04/22 06:55:53;;;;;;;14.93;10.20;;;;;;;14.37;47.67;100844.81;5025943;28;20429;-80
2023/04/22 06:58:22;;;;;;;11.83;8.80;;;;;;;14.73;47.41;100849.34;5026532;28;20439;-78
2023/04/22 07:00:51;;;;;;;14.40;10.27;;;;;;;14.59;47.08;100848.69;5026370;28;20489;-80
2023/04/22 07:03:22;;;;;;;12.33;9.67;;;;;;;14.83;46.93;100848.81;5025575;28;20454;-77
2023/04/22 07:06:09;;;;;;;13.30;10.40;;;;;;;14.77;47.10;100839.66;5060989;23;20484;-83
2023/04/22 07:08:38;;;;;;;11.03;9.73;;;;;;;14.96;46.82;100841.25;5015664;28;20417;-82
2023/04/22 07:11:09;;;;;;;13.00;11.70;;;;;;;15.13;46.33;100846.91;5016196;28;20433;-83
2023/04/22 07:13:55;;;;;;;11.47;10.17;;;;;;;15.40;45.93;100848.13;5015490;28;20466;-80
2023/04/22 07:16:25;;;;;;;13.83;11.60;;;;;;;15.42;45.69;100847.91;5016008;28;20445;-83
2023/04/22 07:18:56;;;;;;;14.80;11.10;;;;;;;15.66;45.38;100849.63;5017112;28;20443;-82
2023/04/22 07:21:26;;;;;;;14.90;11.87;;;;;;;15.55;45.21;100848.53;5032335;28;20409;-82
2023/04/22 07:23:56;;;;;;;14.37;10.83;;;;;;;15.77;45.46;100845.22;5015922;28;20494;-82
2023/04/22 07:26:25;;;;;;;13.13;11.30;;;;;;;16.06;44.91;100845.09;5009693;28;20480;-81
2023/04/22 07:28:54;;;;;;;12.73;10.90;;;;;;;15.86;44.64;100844.63;5016755;28;20417;-80
2023/04/22 07:31:24;;;;;;;13.17;11.40;;;;;;;16.00;44.59;100846.06;5013991;28;20480;-82
2023/04/22 07:33:53;;;;;;;12.30;11.00;;;;;;;16.16;44.15;100839.03;5017412;28;20454;-82
2023/04/22 07:36:25;;;;;;;12.10;10.40;;;;;;;16.35;43.85;100845.16;5003484;28;20452;-83
2023/04/22 07:38:55;;;;;;;11.57;10.20;;;;;;;16.43;43.64;100850.22;5022849;28;20464;-82
2023/04/22 07:41:25;;;;;;;11.53;10.27;;;;;;;16.55;42.99;100848.31;5001855;28;20435;-82
2023/04/22 07:43:54;;;;;;;10.50;9.40;;;;;;;16.72;42.66;100842.94;5007009;28;20426;-84
2023/04/22 07:46:23;;;;;;;12.60;10.97;;;;;;;16.88;43.21;100848.44;5006861;28;20620;-83
2023/04/22 07:48:53;;;;;;;14.57;11.50;;;;;;;17.04;41.72;100846.00;5013245;28;20487;-83
2023/04/22 07:51:24;;;;;;;10.20;9.20;;;;;;;17.10;42.36;100834.06;5009961;28;20419;-84
2023/04/22 07:53:55;;;;;;;12.00;10.80;;;;;;;17.28;41.63;100839.31;5003828;28;20421;-83
2023/04/22 07:56:25;;;;;;;14.30;12.30;;;;;;;17.43;41.93;100831.34;4987958;28;20515;-83
2023/04/22 07:58:59;;;;;;;12.20;10.87;;;;;;;17.34;41.26;100824.63;5005526;28;20518;-83
2023/04/22 08:01:30;;;;;;;15.37;12.30;;;;;;;17.51;41.04;100824.66;5007197;28;20430;-84
2023/04/22 08:04:01;;;;;;;13.63;11.30;;;;;;;17.79;40.46;100811.72;5029335;28;20418;-84
2023/04/22 08:06:35;;;;;;;12.07;10.63;;;;;;;17.96;39.96;100822.59;5006484;28;20451;-83
2023/04/22 08:09:05;;;;;;;13.03;10.97;;;;;;;18.04;40.12;100811.25;5006755;28;20467;-83
2023/04/22 08:11:34;;;;;;;12.93;10.70;;;;;;;17.87;40.07;100812.34;5008578;28;20625;-82
2023/04/22 08:14:05;;;;;;;15.07;10.63;;;;;;;17.87;39.88;100823.28;5016498;28;20486;-83
2023/04/22 08:16:47;;;;;;;14.03;11.60;;;;;;;17.85;39.50;100804.41;5031241;28;20547;-83
2023/04/22 08:19:20;;;;;;;11.10;10.10;;;;;;;17.89;40.16;100812.94;5018065;28;20445;-82
2023/04/22 08:21:52;;;;;;;11.20;9.63;;;;;;;18.09;39.72;100802.25;5017105;28;20445;-83
2023/04/22 08:24:22;;;;;;;12.00;10.80;;;;;;;18.21;39.33;100805.69;5017466;28;20464;-84
2023/04/22 08:26:52;;;;;;;16.33;11.07;;;;;;;18.19;39.27;100799.66;5008969;28;20480;-83
2023/04/22 08:29:23;;;;;;;10.93;9.23;;;;;;;18.09;39.80;100805.00;5017232;28;20411;-82
2023/04/22 08:31:59;;;;;;;14.30;10.20;;;;;;;18.20;39.56;100801.31;5015777;28;20511;-83
2023/04/22 08:34:34;;;;;;;11.83;10.73;;;;;;;18.18;39.71;100804.31;5017977;28;20440;-81
2023/04/22 08:37:07;;;;;;;12.00;10.40;;;;;;;18.41;39.40;100796.91;5016262;28;20473;-82
2023/04/22 08:39:43;;;;;;;11.97;10.77;;;;;;;18.60;39.19;100795.50;5018162;28;20471;-81
2023/04/22 08:42:14;;;;;;;13.30;9.93;;;;;;;18.73;39.20;100803.34;5027559;23;21033;-72
2023/04/22 08:44:43;;;;;;;10.93;8.60;;;;;;;18.86;38.59;100791.13;5012956;28;20487;-72
2023/04/22 08:47:13;;;;;;;11.20;9.03;;;;;;;19.12;38.74;100803.16;5008816;28;21011;-71
2023/04/22 08:49:43;;;;;;;11.70;10.60;;;;;;;19.09;38.21;100793.53;5006761;28;20434;-71
2023/04/22 08:52:14;;;;;;;10.03;9.13;;;;;;;19.10;38.26;100797.94;5007931;28;20436;-71
2023/04/22 08:54:43;;;;;;;11.40;10.10;;;;;;;18.97;38.24;100798.38;5008172;28;20458;-72
2023/04/22 08:57:13;;;;;;;13.63;9.80;;;;;;;19.09;38.56;100801.75;5011837;28;20800;-72
2023/04/22 08:59:43;;;;;;;10.93;9.83;;;;;;;19.12;38.16;100795.78;5007495;28;20827;-71
2023/04/22 09:02:17;;;;;;;11.90;10.37;;;;;;;19.24;38.45;100796.41;5012731;28;20763;-71
2023/04/22 09:04:48;;;;;;;12.20;9.83;;;;;;;19.18;38.02;100791.97;5009054;28;20471;-72
2023/04/22 09:07:23;;;;;;;11.30;10.10;;;;;;;19.23;38.02;100781.03;5011281;28;20435;-73
2023/04/22 09:09:52;;;;;;;12.37;8.90;;;;;;;19.42;38.45;100786.94;5013402;28;20432;-72
2023/04/22 09:12:22;;;;;;;13.77;10.00;;;;;;;19.58;37.68;100785.16;5006512;28;20437;-71
2023/04/22 09:14:51;;;;;;;11.43;10.23;;;;;;;19.81;37.25;100784.75;5014271;28;20763;-72
2023/04/22 09:17:31;;;;;;;10.10;9.13;;;;;;;19.77;36.89;100781.72;5004491;28;20834;-71
2023/04/22 09:20:01;;;;;;;12.50;10.23;;;;;;;19.66;36.93;100779.19;5011377;28;20413;-71
2023/04/22 09:22:39;;;;;;;10.33;9.30;;;;;;;19.88;37.48;100785.38;5011563;28;20433;-72
2023/04/22 09:25:16;;;;;;;13.80;10.00;;;;;;;20.11;37.35;100773.94;5009393;28;20487;-72
2023/04/22 09:27:50;;;;;;;14.20;10.37;;;;;;;20.29;37.01;100773.47;5010835;28;20445;-71
2023/04/22 09:30:23;;;;;;;10.43;9.37;;;;;;;20.29;36.26;100769.88;5012654;28;20856;-71
2023/04/22 09:32:54;;;;;;;10.63;9.53;;;;;;;20.26;37.08;100765.75;5011004;28;20438;-72
2023/04/22 09:35:28;;;;;;;9.77;8.90;;;;;;;20.47;36.11;100768.63;5010749;28;20858;-72
2023/04/22 09:38:00;;;;;;;9.57;8.67;;;;;;;20.76;36.22;100758.78;5008276;28;20442;-73
2023/04/22 09:40:30;;;;;;;9.33;8.30;;;;;;;20.84;35.73;100755.50;5011136;28;20520;-72
2023/04/22 09:43:01;;;;;;;11.43;8.50;;;;;;;20.71;36.10;100756.03;5025899;28;20505;-71
2023/04/22 09:45:32;;;;;;;11.67;9.33;;;;;;;20.78;35.77;100751.06;5029226;28;20504;-69
2023/04/22 09:48:04;;;;;;;9.30;8.37;;;;;;;20.91;35.78;100750.56;5029773;28;20482;-72
2023/04/22 09:50:33;;;;;;;8.77;8.07;;;;;;;21.05;35.33;100746.16;5029303;28;20433;-72
2023/04/22 09:53:05;;;;;;;12.50;8.53;;;;;;;21.08;35.11;100740.09;5024599;28;20428;-72
2023/04/22 09:55:37;;;;;;;19.30;8.90;;;;;;;21.25;35.84;100737.91;5027745;28;20520;-71
2023/04/22 09:58:08;;;;;;;9.60;8.30;;;;;;;21.28;35.43;100733.78;5026729;28;20726;-74
2023/04/22 10:00:42;;;;;;;10.27;8.37;;;;;;;21.39;34.40;100729.09;5012933;28;20550;-73
2023/04/22 10:03:11;;;;;;;9.63;8.60;;;;;;;21.30;35.06;100725.28;5028877;28;20475;-71
2023/04/22 10:05:41;;;;;;;11.70;9.20;;;;;;;21.54;34.47;100720.81;5031284;28;20437;-71
2023/04/22 10:08:13;;;;;;;9.97;8.27;;;;;;;21.60;34.44;100719.69;5032146;28;20534;-72
2023/04/22 10:10:43;;;;;;;10.83;9.07;;;;;;;21.74;33.52;100731.75;5032197;28;20882;-71
2023/04/22 10:13:12;;;;;;;9.90;8.20;;;;;;;21.68;33.30;100719.13;5027087;28;20453;-71
2023/04/22 10:15:43;;;;;;;9.20;8.23;;;;;;;21.75;33.64;100727.91;5030215;28;20476;-72
2023/04/22 10:18:16;;;;;;;10.17;9.17;;;;;;;21.70;33.90;100719.66;5032510;28;20813;-72
2023/04/22 10:20:47;;;;;;;18.37;8.77;;;;;;;21.83;33.52;100713.56;5029655;28;20418;-70
2023/04/22 10:23:20;;;;;;;8.70;7.80;;;;;;;22.00;33.62;100713.25;5031434;28;20475;-71
2023/04/22 10:25:52;;;;;;;14.10;8.30;;;;;;;21.78;33.35;100704.50;5033328;28;21003;-72
2023/04/22 10:28:23;;;;;;;9.10;8.00;;;;;;;21.85;33.47;100700.31;5033044;28;20486;-72
2023/04/22 10:30:52;;;;;;;8.80;7.90;;;;;;;21.79;33.42;100692.34;5030196;28;20455;-73
2023/04/22 10:33:37;;;;;;;9.43;8.53;;;;;;;21.95;33.50;100688.47;5027233;28;20865;-71
2023/04/22 10:36:09;;;;;;;9.37;8.30;;;;;;;22.19;32.74;100683.13;5027987;28;20798;-72
2023/04/22 10:38:41;;;;;;;9.33;8.30;;;;;;;22.20;31.86;100676.50;5031367;28;20435;-72
2023/04/22 10:41:15;;;;;;;8.50;7.60;;;;;;;22.01;32.08;100682.66;5032986;28;20539;-73
2023/04/22 10:43:46;;;;;;;9.63;6.93;;;;;;;21.88;32.85;100677.72;5032913;28;20491;-72
2023/04/22 10:46:52;;;;;;;8.77;7.90;;;;;;;22.15;33.07;100682.03;5033444;28;20463;-72
2023/04/22 10:49:23;;;;;;;9.63;8.37;;;;;;;22.42;31.66;100665.88;5030048;28;20519;-73
2023/04/22 10:51:53;;;;;;;8.83;8.00;;;;;;;22.23;31.97;100667.66;5034878;28;20461;-74
2023/04/22 10:54:59;;;;;;;10.50;8.57;;;;;;;22.52;31.12;100682.34;5035015;28;20508;-73
2023/04/22 10:57:42;;;;;;;9.83;8.00;;;;;;;22.53;30.95;100667.47;5035270;28;20469;-72
2023/04/22 11:00:36;;;;;;;10.33;7.17;;;;;;;22.48;30.59;100670.25;5032808;28;20545;-71
2023/04/22 11:03:27;;;;;;;9.30;7.00;;;;;;;22.16;30.87;100669.91;5023377;28;20507;-72
2023/04/22 11:06:16;;;;;;;8.57;7.70;;;;;;;22.41;31.57;100670.56;5030478;28;20448;-73
2023/04/22 11:08:46;;;;;;;8.80;7.93;;;;;;;22.53;31.23;100670.22;5029179;28;20425;-73
2023/04/22 11:11:18;;;;;;;9.40;8.20;;;;;;;22.41;30.94;100664.25;5031026;28;20441;-70
2023/04/22 11:13:50;;;;;;;8.30;7.50;;;;;;;22.34;30.77;100659.03;5028347;28;20462;-72
2023/04/22 11:16:22;;;;;;;7.27;6.57;;;;;;;22.26;30.87;100661.59;5029035;28;20471;-70
2023/04/22 11:18:52;;;;;;;11.73;7.90;;;;;;;22.30;30.71;100654.41;5032850;28;20417;-71
2023/04/22 11:21:22;;;;;;;9.63;8.20;;;;;;;22.37;30.88;100652.13;5030565;28;21005;-71
2023/04/22 11:23:52;;;;;;;9.60;6.13;;;;;;;22.32;29.95;100644.72;5026775;28;20562;-72
2023/04/22 11:26:34;;;;;;;13.93;8.20;;;;;;;22.47;29.94;100647.38;5031073;28;20436;-71
2023/04/22 11:29:04;;;;;;;10.97;7.40;;;;;;;22.69;29.96;100646.94;5028655;28;20459;-73
2023/04/22 11:31:35;;;;;;;7.90;6.97;;;;;;;22.47;29.42;100647.38;5030740;28;20440;-72
2023/04/22 11:34:04;;;;;;;8.80;7.90;;;;;;;22.41;29.54;100639.44;5025064;28;20447;-73
2023/04/22 11:36:32;;;;;;;8.63;7.13;;;;;;;22.36;30.62;100643.06;5029118;28;20425;-71
2023/04/22 11:39:01;;;;;;;9.07;7.50;;;;;;;22.64;30.27;100630.44;5014901;28;20431;-72